Sargodha, Pakistan
Current Conditions -  °F | °C
As of 2:30 PM on Thursday 18 Dec 2014 (Local Time) from OPLA Reporting Station
Haze Haze  
Wind Chill: 54°   Ceiling: Unl
Heat Index: 54°   Visibility: 0.62mi
Dew Point: 48°   Wind: 6mph
Humidity: 82%   Direction: 270°W
Pressure: 30.15"   Gusts: NA
Location:  32.08°N, 72.67°E
Report Text: OPLA 180930Z 27005KT 1000 BR SCT100 12/09 Q1021
Loading
Personal Weather Stations






























Interactive Weather Map New forecast layout! Learn more

10-Day Weather Forecast

Advertisements
Track Severe Weather on mobile